Time;durP1;ratioP1;P1;durP2;ratioP2;P2;SDS_P1;SDS_P2;PMS_P1;PMS_P2;Temp;Humidity;BMP_temperature;BMP_pressure;BME280_temperature;BME280_humidity;BME280_pressure;Samples;Min_cycle;Max_cycle;Signal;HPM_P1;HPM_P2
2022/06/13 00:00:38;;;;;;;4.70;3.20;;;;;;;;;;4844215;29;20064;-78
2022/06/13 00:03:06;;;;;;;3.17;2.95;;;;;;;;;;4860931;29;20053;-77
2022/06/13 00:05:34;;;;;;;4.13;2.97;;;;;;;;;;4859514;29;20128;-78
2022/06/13 00:08:02;;;;;;;3.40;3.10;;;;;;;;;;4878493;29;20067;-78
2022/06/13 00:10:29;;;;;;;3.20;3.00;;;;;;;;;;4879993;29;20124;-78
2022/06/13 00:12:57;;;;;;;3.20;3.00;;;;;;;;;;4867045;29;20045;-79
2022/06/13 00:15:24;;;;;;;3.67;3.15;;;;;;;;;;4863236;29;20042;-77
2022/06/13 00:17:52;;;;;;;3.88;2.95;;;;;;;;;;4861318;29;20069;-77
2022/06/13 00:20:19;;;;;;;3.50;3.20;;;;;;;;;;4861088;29;20063;-78
2022/06/13 00:22:46;;;;;;;3.42;3.10;;;;;;;;;;4860585;29;20076;-77
2022/06/13 00:25:16;;;;;;;4.18;3.05;;;;;;;;;;4860700;29;20050;-78
2022/06/13 00:27:43;;;;;;;2.80;2.60;;;;;;;;;;4843668;29;20062;-78
2022/06/13 00:30:12;;;;;;;3.50;3.20;;;;;;;;;;4845145;29;20049;-78
2022/06/13 00:32:39;;;;;;;5.00;3.35;;;;;;;;;;4861732;29;20570;-78
2022/06/13 00:35:07;;;;;;;3.35;3.03;;;;;;;;;;4837308;29;20544;-77
2022/06/13 00:37:34;;;;;;;3.40;3.10;;;;;;;;;;4860873;29;20483;-77
2022/06/13 00:40:02;;;;;;;3.50;3.20;;;;;;;;;;4879383;29;20056;-78
2022/06/13 00:42:29;;;;;;;3.25;2.95;;;;;;;;;;4877311;29;20052;-78
2022/06/13 00:45:15;;;;;;;3.20;3.00;;;;;;;;;;4877247;29;20076;-78
2022/06/13 00:47:44;;;;;;;3.60;3.30;;;;;;;;;;4876512;29;20049;-78
2022/06/13 00:50:13;;;;;;;2.80;2.67;;;;;;;;;;4877152;29;20063;-78
2022/06/13 00:53:16;;;;;;;3.20;2.90;;;;;;;;;;4877193;29;20474;-78
2022/06/13 00:55:45;;;;;;;4.60;3.00;;;;;;;;;;4802285;29;20511;-78
2022/06/13 00:58:13;;;;;;;3.42;3.13;;;;;;;;;;4828149;29;20196;-78
2022/06/13 01:00:42;;;;;;;3.97;3.00;;;;;;;;;;4838773;29;20541;-77
2022/06/13 01:03:11;;;;;;;5.95;2.90;;;;;;;;;;4831847;29;20058;-78
2022/06/13 01:05:40;;;;;;;2.88;2.67;;;;;;;;;;4838359;29;20503;-78
2022/06/13 01:08:09;;;;;;;3.08;2.80;;;;;;;;;;4857425;29;20056;-78
2022/06/13 01:13:32;;;;;;;2.83;2.60;;;;;;;;;;4856478;29;20053;-78
2022/06/13 01:16:06;;;;;;;3.10;2.80;;;;;;;;;;4858043;29;20497;-78
2022/06/13 01:18:36;;;;;;;5.05;2.80;;;;;;;;;;4858184;29;20475;-77
2022/06/13 01:21:11;;;;;;;2.90;2.70;;;;;;;;;;4857212;29;20114;-78
2022/06/13 01:23:57;;;;;;;2.83;2.63;;;;;;;;;;4859938;29;20050;-77
2022/06/13 01:26:40;;;;;;;3.08;2.80;;;;;;;;;;4842187;29;20735;-78
2022/06/13 01:29:28;;;;;;;2.75;2.65;;;;;;;;;;4861299;29;20041;-78
2022/06/13 01:32:20;;;;;;;3.00;2.80;;;;;;;;;;4861190;29;20052;-78
2022/06/13 01:34:55;;;;;;;2.70;2.50;;;;;;;;;;4859321;29;20094;-78
2022/06/13 01:37:28;;;;;;;2.75;2.65;;;;;;;;;;4858291;29;20072;-78
2022/06/13 01:39:59;;;;;;;3.85;2.63;;;;;;;;;;4828017;29;20104;-77
2022/06/13 01:42:26;;;;;;;3.08;2.70;;;;;;;;;;4860519;29;20499;-78
2022/06/13 01:45:09;;;;;;;2.90;2.60;;;;;;;;;;4876523;29;20045;-79
2022/06/13 01:47:43;;;;;;;2.90;2.70;;;;;;;;;;4842157;29;20820;-78
2022/06/13 01:50:27;;;;;;;3.10;2.88;;;;;;;;;;4836107;29;20049;-77
2022/06/13 01:52:58;;;;;;;2.85;2.60;;;;;;;;;;4880453;29;20307;-78
2022/06/13 01:55:26;;;;;;;;;;;;;;;;;;4881032;29;20124;-77
2022/06/13 01:57:53;;;;;;;2.83;2.67;;;;;;;;;;4878658;29;20008;-77
2022/06/13 02:00:25;;;;;;;2.60;2.50;;;;;;;;;;4861100;29;20069;-78
2022/06/13 02:02:57;;;;;;;2.85;2.50;;;;;;;;;;4856075;29;20080;-78
2022/06/13 02:05:44;;;;;;;3.53;2.72;;;;;;;;;;4858112;29;20057;-78
2022/06/13 02:08:14;;;;;;;3.08;2.88;;;;;;;;;;4855946;29;20128;-78
2022/06/13 02:11:09;;;;;;;4.03;3.00;;;;;;;;;;4857267;29;20060;-78
2022/06/13 02:13:39;;;;;;;4.93;3.13;;;;;;;;;;4850735;29;20147;-77
2022/06/13 02:16:16;;;;;;;6.45;3.50;;;;;;;;;;4876176;29;20037;-78
2022/06/13 02:19:11;;;;;;;10.15;3.40;;;;;;;;;;4879768;23;20053;-79
2022/06/13 02:22:12;;;;;;;3.65;2.90;;;;;;;;;;4856013;29;20041;-81
2022/06/13 02:24:51;;;;;;;4.97;2.80;;;;;;;;;;4856558;29;20105;-79
2022/06/13 02:27:19;;;;;;;3.70;2.80;;;;;;;;;;4855856;29;20306;-79
2022/06/13 02:29:54;;;;;;;3.50;3.20;;;;;;;;;;4856270;29;20536;-79
2022/06/13 02:32:32;;;;;;;3.40;3.17;;;;;;;;;;4856149;29;20052;-79
2022/06/13 02:35:25;;;;;;;4.30;3.08;;;;;;;;;;4839215;29;20046;-79
2022/06/13 02:37:57;;;;;;;3.95;3.53;;;;;;;;;;4853996;29;20045;-79
2022/06/13 02:40:27;;;;;;;4.45;4.05;;;;;;;;;;4839487;29;20132;-79
2022/06/13 02:43:06;;;;;;;5.50;4.47;;;;;;;;;;4856049;29;20045;-79
2022/06/13 02:45:54;;;;;;;4.28;3.88;;;;;;;;;;4856141;29;20053;-79
2022/06/13 02:48:24;;;;;;;5.28;4.78;;;;;;;;;;4855681;29;20061;-80
2022/06/13 02:51:08;;;;;;;4.35;3.95;;;;;;;;;;4856197;29;20050;-79
2022/06/13 02:53:50;;;;;;;4.95;3.20;;;;;;;;;;4855286;29;20603;-77
2022/06/13 02:56:32;;;;;;;7.32;3.72;;;;;;;;;;4855541;29;20117;-78
2022/06/13 02:59:11;;;;;;;5.75;5.25;;;;;;;;;;4839054;29;20050;-78
2022/06/13 03:01:41;;;;;;;6.28;4.63;;;;;;;;;;4855322;29;20049;-79
2022/06/13 03:04:27;;;;;;;6.15;5.03;;;;;;;;;;4855632;29;20049;-78
2022/06/13 03:06:55;;;;;;;6.60;4.90;;;;;;;;;;4839080;29;20157;-78
2022/06/13 03:09:29;;;;;;;7.82;5.18;;;;;;;;;;4855885;29;20046;-79
2022/06/13 03:11:56;;;;;;;3.72;3.03;;;;;;;;;;4839382;29;20585;-78
2022/06/13 03:14:45;;;;;;;6.13;4.57;;;;;;;;;;4839351;29;20060;-78
2022/06/13 03:17:15;;;;;;;8.85;5.45;;;;;;;;;;4828179;29;20050;-78
2022/06/13 03:19:46;;;;;;;9.15;6.10;;;;;;;;;;4835553;29;20493;-79
2022/06/13 03:22:20;;;;;;;5.10;4.68;;;;;;;;;;4856840;29;20049;-78
2022/06/13 03:24:51;;;;;;;11.10;6.07;;;;;;;;;;4842067;29;20053;-78
2022/06/13 03:27:22;;;;;;;14.93;7.40;;;;;;;;;;4842556;29;20586;-78
2022/06/13 03:29:56;;;;;;;6.28;5.68;;;;;;;;;;4842584;29;20448;-79
2022/06/13 03:32:26;;;;;;;10.20;5.72;;;;;;;;;;4859024;29;20126;-79
2022/06/13 03:34:55;;;;;;;8.60;5.53;;;;;;;;;;4859001;29;20041;-78
2022/06/13 03:37:38;;;;;;;11.52;6.22;;;;;;;;;;4858724;29;20060;-78
2022/06/13 03:40:08;;;;;;;8.40;5.80;;;;;;;;;;4858483;29;20052;-78
2022/06/13 03:42:39;;;;;;;8.05;6.25;;;;;;;;;;4834999;29;20049;-77
2022/06/13 03:45:38;;;;;;;9.27;6.20;;;;;;;;;;4858711;29;20084;-79
2022/06/13 03:48:06;;;;;;;9.50;5.68;;;;;;;;;;4803616;29;20062;-79
2022/06/13 03:50:43;;;;;;;6.18;5.57;;;;;;;;;;4852895;29;20133;-79
2022/06/13 03:53:14;;;;;;;8.18;6.97;;;;;;;;;;4858999;29;20385;-79
2022/06/13 03:55:54;;;;;;;8.85;6.28;;;;;;;;;;4842162;29;20137;-78
2022/06/13 03:58:26;;;;;;;6.38;4.55;;;;;;;;;;4857772;29;20388;-78
2022/06/13 04:00:56;;;;;;;;;;;;;;;;;;4859052;29;20049;-80
2022/06/13 04:03:24;;;;;;;13.15;7.28;;;;;;;;;;4857904;29;20010;-79
2022/06/13 04:06:03;;;;;;;13.48;6.78;;;;;;;;;;4858622;29;20045;-79
2022/06/13 04:08:32;;;;;;;7.72;5.47;;;;;;;;;;4856438;29;20063;-78
2022/06/13 04:11:06;;;;;;;14.23;5.40;;;;;;;;;;4840410;29;20053;-78
2022/06/13 04:13:36;;;;;;;6.75;4.40;;;;;;;;;;4841979;29;20072;-77
2022/06/13 04:16:19;;;;;;;13.32;5.80;;;;;;;;;;4860958;29;20559;-78
2022/06/13 04:18:59;;;;;;;12.93;6.38;;;;;;;;;;4838942;29;20505;-79
2022/06/13 04:21:36;;;;;;;8.18;5.07;;;;;;;;;;4839714;29;20397;-77
2022/06/13 04:24:03;;;;;;;7.68;6.28;;;;;;;;;;4839619;29;20054;-77
2022/06/13 04:26:37;;;;;;;7.15;5.75;;;;;;;;;;4822998;29;20069;-77
2022/06/13 04:29:10;;;;;;;6.65;5.88;;;;;;;;;;4839937;29;20055;-77
2022/06/13 04:31:38;;;;;;;9.73;6.50;;;;;;;;;;4858272;29;20164;-77
2022/06/13 04:34:17;;;;;;;13.18;7.90;;;;;;;;;;4856959;29;20073;-77
2022/06/13 04:36:46;;;;;;;10.15;5.53;;;;;;;;;;4868233;29;20128;-77
2022/06/13 04:39:14;;;;;;;12.52;7.40;;;;;;;;;;4858502;29;20045;-79
2022/06/13 04:41:44;;;;;;;47.65;7.28;;;;;;;;;;4861715;29;20048;-79
2022/06/13 04:44:22;;;;;;;13.48;8.20;;;;;;;;;;4857849;29;20389;-78
2022/06/13 04:46:51;;;;;;;7.90;5.25;;;;;;;;;;4841045;29;20527;-78
2022/06/13 04:49:33;;;;;;;14.15;5.47;;;;;;;;;;4857877;29;20101;-78
2022/06/13 04:52:04;;;;;;;8.88;7.47;;;;;;;;;;4856602;29;20420;-77
2022/06/13 04:54:40;;;;;;;10.13;6.28;;;;;;;;;;4844912;29;20052;-75
2022/06/13 04:57:12;;;;;;;5.30;4.25;;;;;;;;;;4833022;29;20042;-78
2022/06/13 04:59:40;;;;;;;8.18;6.35;;;;;;;;;;4826037;29;20076;-78
2022/06/13 05:02:12;;;;;;;5.03;4.60;;;;;;;;;;4840944;29;20416;-77
2022/06/13 05:04:39;;;;;;;5.93;4.53;;;;;;;;;;4855398;29;20049;-80
2022/06/13 05:07:18;;;;;;;8.13;7.35;;;;;;;;;;4839146;29;20547;-76
2022/06/13 05:09:49;;;;;;;13.32;7.80;;;;;;;;;;4839072;29;20057;-77
2022/06/13 05:12:21;;;;;;;12.90;9.02;;;;;;;;;;4839473;29;20042;-77
2022/06/13 05:15:01;;;;;;;12.73;8.63;;;;;;;;;;4822348;29;20419;-77
2022/06/13 05:17:38;;;;;;;13.20;10.43;;;;;;;;;;4838538;29;20475;-77
2022/06/13 05:20:11;;;;;;;14.63;10.60;;;;;;;;;;4839827;29;20455;-77
2022/06/13 05:22:41;;;;;;;10.43;8.13;;;;;;;;;;4852855;29;20041;-75
2022/06/13 05:25:28;;;;;;;11.57;8.95;;;;;;;;;;4856865;29;20807;-78
2022/06/13 05:27:55;;;;;;;14.98;10.25;;;;;;;;;;4856136;29;20053;-77
2022/06/13 05:30:26;;;;;;;14.60;9.38;;;;;;;;;;4871323;29;20068;-77
2022/06/13 05:32:54;;;;;;;11.27;8.50;;;;;;;;;;4864011;29;20045;-78
2022/06/13 05:35:26;;;;;;;13.30;9.90;;;;;;;;;;4866671;29;20468;-79
2022/06/13 05:37:55;;;;;;;7.57;6.85;;;;;;;;;;4864542;29;20045;-78
2022/06/13 05:40:23;;;;;;;8.10;7.32;;;;;;;;;;4844301;29;20085;-77
2022/06/13 05:42:50;;;;;;;14.43;8.13;;;;;;;;;;4851805;29;20057;-78
2022/06/13 05:45:19;;;;;;;11.98;7.95;;;;;;;;;;4859606;29;20049;-77
2022/06/13 05:47:47;;;;;;;7.15;6.40;;;;;;;;;;4858380;29;20523;-76
2022/06/13 05:50:21;;;;;;;8.25;6.82;;;;;;;;;;4847132;29;20059;-77
2022/06/13 05:52:48;;;;;;;12.95;10.07;;;;;;;;;;4864510;29;20042;-77
2022/06/13 05:55:16;;;;;;;8.77;7.65;;;;;;;;;;4865537;29;20094;-78
2022/06/13 05:58:00;;;;;;;12.85;7.95;;;;;;;;;;4849200;29;20101;-77
2022/06/13 06:00:29;;;;;;;7.82;6.93;;;;;;;;;;4847354;29;20072;-78
2022/06/13 06:02:56;;;;;;;6.13;5.30;;;;;;;;;;4863634;29;20133;-77
2022/06/13 06:05:24;;;;;;;7.20;6.50;;;;;;;;;;4864693;29;20053;-78
2022/06/13 06:07:51;;;;;;;7.75;5.90;;;;;;;;;;4864129;29;20146;-77
2022/06/13 06:10:21;;;;;;;6.72;5.75;;;;;;;;;;4865730;29;20060;-78
2022/06/13 06:12:49;;;;;;;6.57;5.63;;;;;;;;;;4866403;29;20041;-79
2022/06/13 06:15:16;;;;;;;6.85;6.13;;;;;;;;;;4865318;29;20042;-79
2022/06/13 06:17:43;;;;;;;7.63;6.80;;;;;;;;;;4860912;29;20048;-79
2022/06/13 06:20:18;;;;;;;6.88;5.53;;;;;;;;;;4863957;29;20049;-78
2022/06/13 06:22:46;;;;;;;10.18;6.68;;;;;;;;;;4864894;29;20128;-76
2022/06/13 06:25:13;;;;;;;9.82;6.38;;;;;;;;;;4862736;29;20432;-78
2022/06/13 06:27:41;;;;;;;8.85;6.50;;;;;;;;;;4862851;29;20128;-79
2022/06/13 06:30:08;;;;;;;7.30;5.55;;;;;;;;;;4856609;29;20515;-82
2022/06/13 06:32:35;;;;;;;5.68;5.10;;;;;;;;;;4840644;29;20544;-78
2022/06/13 06:35:04;;;;;;;8.25;6.95;;;;;;;;;;4853000;29;20381;-78
2022/06/13 06:37:31;;;;;;;8.63;7.72;;;;;;;;;;4845798;29;20046;-79
2022/06/13 06:39:58;;;;;;;7.35;6.65;;;;;;;;;;4858785;29;20053;-79
2022/06/13 06:42:26;;;;;;;10.27;7.97;;;;;;;;;;4858529;29;20067;-79
2022/06/13 06:45:15;;;;;;;6.13;5.35;;;;;;;;;;4860839;29;20056;-78
2022/06/13 06:47:43;;;;;;;5.97;5.30;;;;;;;;;;4853138;29;20060;-78
2022/06/13 06:50:14;;;;;;;5.53;5.13;;;;;;;;;;4856277;29;20053;-78
2022/06/13 06:52:41;;;;;;;6.45;5.85;;;;;;;;;;4854839;29;20037;-78
2022/06/13 07:01:12;;;;;;;5.53;5.00;;;;;;;;;;4855308;29;20403;-78
2022/06/13 07:03:55;;;;;;;;;;;;;;;;;;;;;
2022/06/13 07:06:29;;;;;;;5.65;5.07;;;;;;;;;;4841385;29;20188;-79
2022/06/13 07:09:14;;;;;;;4.70;4.40;;;;;;;;;;4858439;29;20073;-79
2022/06/13 07:11:54;;;;;;;6.40;5.38;;;;;;;;;;4825898;29;20516;-79
2022/06/13 07:14:27;;;;;;;6.03;5.43;;;;;;;;;;4840790;29;20060;-80
2022/06/13 07:17:14;;;;;;;5.53;5.03;;;;;;;;;;4842812;29;20049;-79
2022/06/13 07:19:51;;;;;;;7.90;7.07;;;;;;;;;;4833058;29;20058;-79
2022/06/13 07:22:20;;;;;;;12.25;6.63;;;;;;;;;;4825876;29;20049;-79
2022/06/13 07:24:56;;;;;;;6.63;5.93;;;;;;;;;;4841357;29;20070;-79
2022/06/13 07:27:26;;;;;;;8.02;7.03;;;;;;;;;;4845443;29;20504;-79
2022/06/13 07:29:59;;;;;;;7.05;6.35;;;;;;;;;;4831693;29;20050;-79
2022/06/13 07:32:34;;;;;;;6.25;5.82;;;;;;;;;;4850371;29;20045;-80
2022/06/13 07:35:32;;;;;;;7.13;6.30;;;;;;;;;;4849754;29;20388;-80
2022/06/13 07:38:22;;;;;;;7.68;6.10;;;;;;;;;;4833388;29;20041;-79
2022/06/13 07:44:49;;;;;;;6.47;5.88;;;;;;;;;;4847955;29;20029;-78
2022/06/13 07:47:35;;;;;;;8.13;6.95;;;;;;;;;;4848314;29;20042;-78
2022/06/13 07:50:20;;;;;;;6.85;6.18;;;;;;;;;;4849663;29;20446;-76
2022/06/13 07:53:04;;;;;;;6.50;5.90;;;;;;;;;;4831067;29;20041;-79
2022/06/13 07:56:32;;;;;;;6.65;6.05;;;;;;;;;;4813175;29;20053;-79
2022/06/13 07:59:26;;;;;;;6.10;5.60;;;;;;;;;;4866258;24;20476;-78
2022/06/13 08:02:37;;;;;;;6.03;5.47;;;;;;;;;;4851576;29;20131;-79
2022/06/13 08:05:36;;;;;;;6.50;5.25;;;;;;;;;;4802049;29;20436;-78
2022/06/13 08:08:34;;;;;;;5.60;5.10;;;;;;;;;;4799379;29;20068;-79
2022/06/13 08:11:31;;;;;;;6.22;5.00;;;;;;;;;;4821761;29;20473;-78
2022/06/13 08:14:06;;;;;;;6.00;5.60;;;;;;;;;;4810027;29;20129;-79
2022/06/13 08:16:48;;;;;;;4.88;4.53;;;;;;;;;;4799434;29;20059;-81
2022/06/13 08:19:19;;;;;;;6.07;4.93;;;;;;;;;;4852266;24;20384;-83
2022/06/13 08:21:46;;;;;;;5.18;4.72;;;;;;;;;;4863881;29;20144;-82
2022/06/13 08:24:14;;;;;;;6.13;5.18;;;;;;;;;;4827450;29;20429;-81
2022/06/13 08:26:41;;;;;;;5.10;4.75;;;;;;;;;;4826682;29;20050;-83
2022/06/13 08:29:09;;;;;;;5.50;4.88;;;;;;;;;;4826843;29;20684;-82
2022/06/13 08:31:36;;;;;;;4.28;3.97;;;;;;;;;;4905426;23;20031;-78
2022/06/13 08:34:04;;;;;;;4.70;4.10;;;;;;;;;;4848157;29;20044;-79
2022/06/13 08:36:32;;;;;;;4.13;3.58;;;;;;;;;;4847570;29;20470;-79
2022/06/13 08:39:00;;;;;;;4.15;2.92;;;;;;;;;;4846692;29;20049;-79
2022/06/13 08:41:36;;;;;;;2.67;2.40;;;;;;;;;;4861469;29;20132;-79
2022/06/13 08:44:08;;;;;;;2.50;2.33;;;;;;;;;;4842337;29;20109;-78
2022/06/13 08:46:41;;;;;;;2.22;1.85;;;;;;;;;;4842174;29;20101;-78
2022/06/13 08:49:35;;;;;;;1.88;1.60;;;;;;;;;;4841641;29;20053;-77
2022/06/13 08:52:18;;;;;;;2.65;1.70;;;;;;;;;;4855721;29;20045;-80
2022/06/13 08:54:48;;;;;;;1.52;1.50;;;;;;;;;;4839709;29;20559;-80
2022/06/13 08:57:24;;;;;;;1.83;1.70;;;;;;;;;;4856438;29;20049;-79
2022/06/13 09:00:03;;;;;;;3.35;1.58;;;;;;;;;;4857970;29;20045;-79
2022/06/13 09:02:39;;;;;;;2.03;1.70;;;;;;;;;;4856261;29;20101;-80
2022/06/13 09:05:13;;;;;;;2.40;1.90;;;;;;;;;;4843774;29;20045;-79
2022/06/13 09:07:49;;;;;;;3.53;2.10;;;;;;;;;;4847106;29;20053;-80
2022/06/13 09:10:31;;;;;;;2.05;1.88;;;;;;;;;;4846482;29;20056;-79
2022/06/13 09:12:59;;;;;;;2.20;2.00;;;;;;;;;;4831300;29;20534;-79
2022/06/13 09:15:30;;;;;;;2.75;2.00;;;;;;;;;;4845733;29;20148;-79
2022/06/13 09:18:07;;;;;;;1.90;1.80;;;;;;;;;;4831287;29;20049;-79
2022/06/13 09:20:54;;;;;;;2.60;1.98;;;;;;;;;;4842802;29;20049;-79
2022/06/13 09:23:51;;;;;;;2.75;2.00;;;;;;;;;;4845820;29;20045;-79
2022/06/13 09:26:39;;;;;;;2.10;2.00;;;;;;;;;;4827658;29;20057;-79
2022/06/13 09:29:06;;;;;;;3.72;2.00;;;;;;;;;;4825841;29;20053;-79
2022/06/13 09:31:36;;;;;;;2.20;2.00;;;;;;;;;;4859858;29;20049;-79
2022/06/13 09:34:10;;;;;;;1.95;1.52;;;;;;;;;;4843779;29;20098;-79
2022/06/13 09:36:40;;;;;;;1.35;1.30;;;;;;;;;;4842158;29;20061;-79
2022/06/13 09:39:09;;;;;;;2.13;1.92;;;;;;;;;;4841793;29;20077;-80
2022/06/13 09:41:36;;;;;;;2.42;2.22;;;;;;;;;;4820493;29;20041;-79
2022/06/13 09:44:03;;;;;;;2.10;1.90;;;;;;;;;;4826446;29;20479;-80
2022/06/13 09:46:37;;;;;;;3.30;1.83;;;;;;;;;;4825910;29;20373;-79
2022/06/13 09:49:16;;;;;;;5.60;1.95;;;;;;;;;;4840335;29;20094;-79
2022/06/13 09:51:49;;;;;;;1.73;1.60;;;;;;;;;;4842540;29;20054;-80
2022/06/13 09:54:31;;;;;;;2.00;1.83;;;;;;;;;;4841047;29;20076;-80
2022/06/13 09:57:06;;;;;;;2.10;1.90;;;;;;;;;;4847481;29;20048;-80
2022/06/13 09:59:52;;;;;;;6.03;1.92;;;;;;;;;;4857472;29;20053;-79
2022/06/13 10:02:29;;;;;;;1.70;1.60;;;;;;;;;;4822850;29;20084;-81
2022/06/13 10:05:08;;;;;;;1.60;1.50;;;;;;;;;;4822432;29;20118;-79
2022/06/13 10:07:48;;;;;;;1.55;1.45;;;;;;;;;;4838985;29;20184;-80
2022/06/13 10:10:22;;;;;;;1.40;1.40;;;;;;;;;;4823639;29;20110;-80
2022/06/13 10:12:51;;;;;;;2.00;1.52;;;;;;;;;;4842006;29;20711;-80
2022/06/13 10:15:37;;;;;;;3.55;1.70;;;;;;;;;;4855124;29;20094;-79
2022/06/13 10:18:10;;;;;;;1.60;1.50;;;;;;;;;;4844379;29;20136;-79
2022/06/13 10:20:42;;;;;;;1.60;1.50;;;;;;;;;;4853904;29;20528;-79
2022/06/13 10:23:11;;;;;;;;;;;;;;;;;;4872140;29;20054;-80
2022/06/13 10:25:39;;;;;;;2.88;1.45;;;;;;;;;;4831016;29;20334;-80
2022/06/13 10:28:12;;;;;;;3.97;1.60;;;;;;;;;;4858757;29;20498;-80
2022/06/13 10:30:49;;;;;;;1.63;1.52;;;;;;;;;;4842623;29;20045;-79
2022/06/13 10:33:28;;;;;;;2.13;1.90;;;;;;;;;;4844747;29;20072;-79
2022/06/13 10:36:14;;;;;;;2.60;1.80;;;;;;;;;;4843855;29;20065;-79
2022/06/13 10:39:00;;;;;;;1.63;1.50;;;;;;;;;;4830407;29;20122;-80
2022/06/13 10:41:28;;;;;;;3.65;1.60;;;;;;;;;;4830396;29;20061;-79
2022/06/13 10:43:57;;;;;;;3.90;1.75;;;;;;;;;;4846959;29;20149;-80
2022/06/13 10:46:25;;;;;;;1.92;1.70;;;;;;;;;;4811864;29;20053;-79
2022/06/13 10:48:56;;;;;;;2.75;1.67;;;;;;;;;;4858995;29;20451;-79
2022/06/13 10:51:24;;;;;;;1.85;1.75;;;;;;;;;;4837070;29;20063;-79
2022/06/13 10:54:01;;;;;;;1.70;1.42;;;;;;;;;;4861944;29;20474;-79
2022/06/13 10:56:34;;;;;;;1.88;1.48;;;;;;;;;;4845903;29;20450;-79
2022/06/13 10:59:01;;;;;;;6.93;2.55;;;;;;;;;;4860454;29;20053;-79
2022/06/13 11:01:30;;;;;;;1.88;1.77;;;;;;;;;;4862901;29;20076;-80
2022/06/13 11:04:07;;;;;;;1.77;1.55;;;;;;;;;;4879879;29;20172;-79
2022/06/13 11:06:38;;;;;;;2.38;1.42;;;;;;;;;;4880042;29;20057;-79
2022/06/13 11:09:06;;;;;;;;;;;;;;;;;;4881129;29;20049;-80
2022/06/13 11:11:35;;;;;;;1.65;1.30;;;;;;;;;;4881675;29;19924;-80
2022/06/13 11:14:03;;;;;;;1.80;1.33;;;;;;;;;;4881547;29;20107;-80
2022/06/13 11:22:45;;;;;;;2.78;1.40;;;;;;;;;;4844443;29;20110;-80
2022/06/13 11:25:33;;;;;;;5.70;1.48;;;;;;;;;;4858075;29;20537;-80
2022/06/13 11:28:00;;;;;;;2.13;1.60;;;;;;;;;;4842997;29;20070;-79
2022/06/13 11:30:30;;;;;;;2.03;1.40;;;;;;;;;;4825975;29;20539;-80
2022/06/13 11:32:58;;;;;;;6.35;1.90;;;;;;;;;;4856092;29;20037;-80
2022/06/13 11:35:28;;;;;;;3.30;1.50;;;;;;;;;;4859788;29;20509;-80
2022/06/13 11:37:55;;;;;;;2.58;1.40;;;;;;;;;;4853375;29;20073;-80
2022/06/13 11:40:26;;;;;;;2.65;1.50;;;;;;;;;;4839147;29;20053;-80
2022/06/13 11:42:53;;;;;;;1.60;1.20;;;;;;;;;;4845016;29;20145;-80
2022/06/13 11:45:28;;;;;;;2.40;1.30;;;;;;;;;;4854562;29;20081;-79
2022/06/13 11:47:55;;;;;;;2.25;1.40;;;;;;;;;;4861821;29;20132;-78
2022/06/13 11:50:24;;;;;;;2.50;1.58;;;;;;;;;;4845800;29;20063;-79
2022/06/13 11:55:48;;;;;;;3.10;1.20;;;;;;;;;;4859416;29;20065;-79
2022/06/13 11:58:26;;;;;;;2.65;1.38;;;;;;;;;;4850364;29;20053;-79
2022/06/13 12:00:55;;;;;;;2.78;1.70;;;;;;;;;;4863592;29;20049;-79
2022/06/13 12:03:26;;;;;;;3.17;1.45;;;;;;;;;;4864216;29;20113;-80
2022/06/13 12:06:08;;;;;;;2.33;1.20;;;;;;;;;;4844847;29;20057;-80
2022/06/13 12:08:36;;;;;;;2.20;1.30;;;;;;;;;;4842952;29;20057;-80
2022/06/13 12:11:09;;;;;;;2.40;1.38;;;;;;;;;;4843363;29;20081;-80
2022/06/13 12:13:42;;;;;;;4.40;1.13;;;;;;;;;;4842183;29;20498;-81
2022/06/13 12:16:17;;;;;;;3.78;1.60;;;;;;;;;;4849593;29;20057;-80
2022/06/13 12:19:00;;;;;;;3.72;1.17;;;;;;;;;;4868462;29;20091;-80
2022/06/13 12:21:44;;;;;;;2.78;1.00;;;;;;;;;;4872121;29;20045;-80
2022/06/13 12:24:18;;;;;;;1.23;1.10;;;;;;;;;;4866804;29;20474;-80
2022/06/13 12:26:52;;;;;;;2.17;1.45;;;;;;;;;;4857446;29;20057;-80
2022/06/13 12:29:32;;;;;;;2.08;1.63;;;;;;;;;;4845418;29;20041;-80
2022/06/13 12:32:20;;;;;;;5.55;1.23;;;;;;;;;;4830270;29;20124;-80
2022/06/13 12:35:07;;;;;;;1.27;1.10;;;;;;;;;;4825892;29;20058;-81
2022/06/13 12:37:42;;;;;;;1.20;1.10;;;;;;;;;;4834986;29;20451;-80
2022/06/13 12:40:29;;;;;;;4.18;0.90;;;;;;;;;;4843210;29;20046;-79
2022/06/13 12:43:13;;;;;;;1.48;0.90;;;;;;;;;;4837280;29;20406;-78
2022/06/13 12:45:40;;;;;;;2.75;0.95;;;;;;;;;;4842344;29;20193;-78
2022/06/13 12:48:08;;;;;;;3.00;0.90;;;;;;;;;;4841643;29;20038;-78
2022/06/13 12:50:35;;;;;;;3.13;0.95;;;;;;;;;;4859055;29;20406;-79
2022/06/13 12:53:21;;;;;;;2.25;0.90;;;;;;;;;;4858195;29;20041;-79
2022/06/13 12:56:08;;;;;;;1.33;0.90;;;;;;;;;;4852045;29;20064;-81
2022/06/13 12:58:47;;;;;;;5.05;0.90;;;;;;;;;;4840390;29;20045;-80
2022/06/13 13:01:24;;;;;;;2.58;1.10;;;;;;;;;;4872612;29;20041;-80
2022/06/13 13:04:05;;;;;;;2.47;1.23;;;;;;;;;;4839293;29;20125;-80
2022/06/13 13:06:35;;;;;;;2.78;1.50;;;;;;;;;;4847329;29;20070;-79
2022/06/13 13:09:03;;;;;;;2.50;1.27;;;;;;;;;;4861480;29;20065;-80
2022/06/13 13:11:51;;;;;;;2.07;1.30;;;;;;;;;;4846197;29;20047;-80
2022/06/13 13:14:36;;;;;;;1.63;0.98;;;;;;;;;;4844365;29;20038;-77
2022/06/13 13:17:14;;;;;;;3.13;0.95;;;;;;;;;;4838938;29;20100;-78
2022/06/13 13:19:45;;;;;;;1.70;1.00;;;;;;;;;;4872840;29;20041;-79
2022/06/13 13:22:14;;;;;;;3.72;1.08;;;;;;;;;;4877825;29;20041;-79
2022/06/13 13:24:44;;;;;;;4.82;1.30;;;;;;;;;;4843862;29;20426;-80
2022/06/13 13:27:17;;;;;;;3.13;1.00;;;;;;;;;;4852408;29;20089;-79
2022/06/13 13:30:04;;;;;;;1.70;1.00;;;;;;;;;;4849042;29;20060;-80
2022/06/13 13:32:55;;;;;;;1.98;1.05;;;;;;;;;;4845984;29;20045;-80
2022/06/13 13:35:29;;;;;;;2.25;0.93;;;;;;;;;;4860715;29;20057;-80
2022/06/13 13:38:15;;;;;;;3.80;1.35;;;;;;;;;;4854971;29;20053;-80
2022/06/13 13:40:48;;;;;;;1.95;0.90;;;;;;;;;;4862716;29;20104;-79
2022/06/13 13:43:35;;;;;;;2.72;1.10;;;;;;;;;;4838751;29;20052;-80
2022/06/13 13:46:29;;;;;;;3.08;1.30;;;;;;;;;;4830586;29;20037;-80
2022/06/13 13:48:57;;;;;;;2.08;1.20;;;;;;;;;;4863887;29;20515;-79
2022/06/13 13:51:30;;;;;;;2.83;1.30;;;;;;;;;;4841983;29;20041;-80
2022/06/13 13:54:10;;;;;;;2.95;1.20;;;;;;;;;;4860091;29;20046;-79
2022/06/13 13:56:44;;;;;;;3.97;1.20;;;;;;;;;;4859907;29;20105;-79
2022/06/13 13:59:14;;;;;;;2.00;1.00;;;;;;;;;;4843764;29;20081;-81
2022/06/13 14:01:56;;;;;;;1.73;1.20;;;;;;;;;;4868872;29;20033;-80
2022/06/13 14:04:27;;;;;;;1.65;0.93;;;;;;;;;;4848337;29;20080;-79
2022/06/13 14:06:54;;;;;;;;;;;;;;;;;;4871449;29;20049;-80
2022/06/13 14:09:22;;;;;;;2.53;1.38;;;;;;;;;;4858448;29;19932;-78
2022/06/13 14:12:02;;;;;;;4.00;1.17;;;;;;;;;;4824535;29;20076;-79
2022/06/13 14:14:38;;;;;;;3.30;1.10;;;;;;;;;;4837125;29;20732;-79
2022/06/13 14:17:15;;;;;;;1.25;1.15;;;;;;;;;;4814037;29;20084;-77
2022/06/13 14:20:12;;;;;;;2.92;1.20;;;;;;;;;;4860298;24;20049;-78
2022/06/13 14:23:21;;;;;;;2.45;1.20;;;;;;;;;;4837086;29;20041;-80
2022/06/13 14:25:53;;;;;;;3.60;1.17;;;;;;;;;;4851935;29;20045;-80
2022/06/13 14:28:55;;;;;;;2.47;1.05;;;;;;;;;;4834490;29;20622;-79
2022/06/13 14:31:44;;;;;;;;;;;;;;;;;;4853803;29;20037;-79
2022/06/13 14:41:53;;;;;;;2.70;1.15;;;;;;;;;;4834330;29;20034;-79
2022/06/13 14:45:05;;;;;;;2.70;1.30;;;;;;;;;;4856832;29;20052;-80
2022/06/13 14:48:09;;;;;;;2.78;1.10;;;;;;;;;;4841496;29;20135;-79
2022/06/13 14:50:48;;;;;;;4.70;1.52;;;;;;;;;;4841196;29;20064;-79
2022/06/13 14:53:46;;;;;;;4.43;1.00;;;;;;;;;;4839030;29;20046;-79
2022/06/13 14:56:40;;;;;;;3.47;1.27;;;;;;;;;;4831132;29;20041;-81
2022/06/13 14:59:51;;;;;;;2.35;1.30;;;;;;;;;;4829459;29;20136;-81
2022/06/13 15:02:59;;;;;;;4.30;1.15;;;;;;;;;;4833932;29;20088;-80
2022/06/13 15:06:06;;;;;;;3.35;1.27;;;;;;;;;;4828727;29;20045;-81
2022/06/13 15:09:48;;;;;;;1.90;1.13;;;;;;;;;;4824461;29;20064;-81
2022/06/13 15:12:45;;;;;;;1.92;1.30;;;;;;;;;;4796287;29;20056;-80
2022/06/13 15:15:55;;;;;;;2.45;1.52;;;;;;;;;;4800323;29;20859;-81
2022/06/13 15:19:03;;;;;;;5.38;1.02;;;;;;;;;;4808867;29;20417;-81
2022/06/13 15:21:45;;;;;;;3.35;1.40;;;;;;;;;;4828688;29;20526;-79
2022/06/13 15:24:49;;;;;;;5.90;1.40;;;;;;;;;;4843378;29;20053;-77
2022/06/13 15:27:39;;;;;;;2.40;1.25;;;;;;;;;;4814673;29;20127;-80
2022/06/13 15:30:29;;;;;;;5.43;1.20;;;;;;;;;;4839684;29;20057;-79
2022/06/13 15:33:13;;;;;;;3.40;1.10;;;;;;;;;;4854503;29;20102;-80
2022/06/13 15:35:45;;;;;;;5.28;1.30;;;;;;;;;;4852754;29;20132;-81
2022/06/13 15:38:20;;;;;;;2.17;1.15;;;;;;;;;;4829211;29;20041;-84
2022/06/13 15:41:15;;;;;;;3.15;1.17;;;;;;;;;;4835554;29;20061;-81
2022/06/13 15:44:31;;;;;;;5.03;1.10;;;;;;;;;;4816240;29;20061;-79
2022/06/13 15:47:25;;;;;;;1.83;1.10;;;;;;;;;;4828710;29;20057;-79
2022/06/13 15:50:04;;;;;;;2.85;1.10;;;;;;;;;;4826658;29;20389;-84
2022/06/13 15:53:08;;;;;;;1.35;0.95;;;;;;;;;;4809918;29;20054;-79
2022/06/13 15:56:33;;;;;;;5.28;0.90;;;;;;;;;;4825831;29;20056;-80
2022/06/13 15:59:52;;;;;;;2.95;1.05;;;;;;;;;;4813938;29;20062;-77
2022/06/13 16:02:32;;;;;;;1.70;1.10;;;;;;;;;;4841726;29;20120;-80
2022/06/13 16:05:17;;;;;;;2.05;0.90;;;;;;;;;;4880283;29;20045;-81
2022/06/13 16:08:15;;;;;;;2.17;1.02;;;;;;;;;;4832711;29;20061;-79
2022/06/13 16:10:53;;;;;;;2.28;1.02;;;;;;;;;;4857120;29;20064;-84